Etusivu
METAR-TAF:

METAR-TAF

Lentoasemat :

Öljynporauslautta

Goeree Le, Alankomaat

Leveyspiiri: 51-55-33N, Pituuspiiri: 3-40-12E, korkeus merenpinnasta: 19 m

Tämänhetkinen sää

Tämä raportti tehtiin 42 minuuttia sitten, kello 04.55 UTC
Tuuli 19 kn idästä/kaakosta
Lämpötila 3°C
Kosteus 93%
Ilmanpaine 1010 hPa
Näkyvyys: 6000 m

METAR: EHSC 210455Z AUTO 11019KT 6000 ///////// 03/02 Q1010 W10/H7

Aika: 06:37 (05:37 UTC)


TAF: puuttuu

Säähavainnot ja -ennusteet yli 4000 lentoasemalta (METAR- ja TAF-raportit).

Käytössä olevat sääasemat on merkitty karttaan keltaisilla ja punaisilla pisteillä.

Aseta hiiri pisteen päälle nähdäksesi sääaseman nimen.

Klikkaa sitten nähdäksesi säähavainnot ja -ennusteet.

Kartan vaihtaminen: klikkaa mustalla rastilla varustettuja vihreitä pisteitä, niin voit zoomata sisään; viivalla varustettua vihreää pistettä, niin voit zoomata ulos tai vihreitä nuolia, niin pääset viereisille kartoille.


METAR-TAF: